Terminal Aerodrome Forecast
Issued by NWS Knoxville/Tri Cities, TN

Home | Current Version | Previous Version | Text Only | Print | Product List | Glossary On
Versions: 1 2 3 4 5 6 7 8 9 10 11 12 13 14 15 16 17 18 19 20 21 22 23 24 25 26 27 28 29 30 31 32 33 34 35 36 37
000
FTUS44 KMRX 071136
TAFTYS
TAF
KTYS 071136Z 0712/0812 00000KT P6SM SCT020 BKN045
      TEMPO 0712/0714 BKN025
     FM071400 23008KT P6SM SCT035 BKN100
     FM071900 24011G20KT P6SM SCT050 SCT120
     FM080100 23006KT P6SM FEW060 SCT250
     FM081000 22005KT 5SM BR BKN250=

USA.gov is the U.S. government's official web portal to all federal, state and local government web resources and services.